sensor_id;sensor_type;location;lat;lon;timestamp;temperature;humidity
10231;DHT22;62604;49.432;8.680;2022-08-11T00:01:10;23.00;18.50
10231;DHT22;62604;49.432;8.680;2022-08-11T00:03:43;22.90;18.70
10231;DHT22;62604;49.432;8.680;2022-08-11T00:06:12;22.90;18.90
10231;DHT22;62604;49.432;8.680;2022-08-11T00:08:41;22.80;19.10
10231;DHT22;62604;49.432;8.680;2022-08-11T00:11:10;22.70;19.20
10231;DHT22;62604;49.432;8.680;2022-08-11T00:13:41;22.60;19.50
10231;DHT22;62604;49.432;8.680;2022-08-11T00:16:14;22.60;19.70
10231;DHT22;62604;49.432;8.680;2022-08-11T00:18:46;22.50;19.80
10231;DHT22;62604;49.432;8.680;2022-08-11T00:21:14;22.40;19.90
10231;DHT22;62604;49.432;8.680;2022-08-11T00:23:43;22.40;19.90
10231;DHT22;62604;49.432;8.680;2022-08-11T00:26:12;22.40;20.10
10231;DHT22;62604;49.432;8.680;2022-08-11T00:28:42;22.30;20.00
10231;DHT22;62604;49.432;8.680;2022-08-11T00:31:19;22.40;20.10
10231;DHT22;62604;49.432;8.680;2022-08-11T00:33:48;22.40;20.10
10231;DHT22;62604;49.432;8.680;2022-08-11T00:36:18;22.40;19.90
10231;DHT22;62604;49.432;8.680;2022-08-11T00:38:50;22.40;20.10
10231;DHT22;62604;49.432;8.680;2022-08-11T00:41:28;22.40;20.00
10231;DHT22;62604;49.432;8.680;2022-08-11T00:44:20;22.40;20.30
10231;DHT22;62604;49.432;8.680;2022-08-11T00:46:58;22.30;20.40
10231;DHT22;62604;49.432;8.680;2022-08-11T00:49:37;22.30;20.50
10231;DHT22;62604;49.432;8.680;2022-08-11T00:52:16;22.20;20.60
10231;DHT22;62604;49.432;8.680;2022-08-11T00:58:28;22.10;21.00
10231;DHT22;62604;49.432;8.680;2022-08-11T01:01:17;22.00;21.10
10231;DHT22;62604;49.432;8.680;2022-08-11T01:04:15;22.00;21.20
10231;DHT22;62604;49.432;8.680;2022-08-11T01:06:58;21.90;21.40
10231;DHT22;62604;49.432;8.680;2022-08-11T01:09:40;21.90;21.30
10231;DHT22;62604;49.432;8.680;2022-08-11T01:12:30;21.90;21.50
10231;DHT22;62604;49.432;8.680;2022-08-11T01:28:31;21.60;22.40
10231;DHT22;62604;49.432;8.680;2022-08-11T01:31:26;21.50;22.60
10231;DHT22;62604;49.432;8.680;2022-08-11T01:37:38;21.40;22.80
10231;DHT22;62604;49.432;8.680;2022-08-11T01:40:39;21.40;23.00
10231;DHT22;62604;49.432;8.680;2022-08-11T01:43:40;21.40;23.00
10231;DHT22;62604;49.432;8.680;2022-08-11T01:46:34;21.30;23.10
10231;DHT22;62604;49.432;8.680;2022-08-11T01:49:09;21.30;23.20
10231;DHT22;62604;49.432;8.680;2022-08-11T01:51:57;21.30;23.40
10231;DHT22;62604;49.432;8.680;2022-08-11T01:54:35;21.30;23.50
10231;DHT22;62604;49.432;8.680;2022-08-11T01:57:15;21.20;23.60
10231;DHT22;62604;49.432;8.680;2022-08-11T01:59:50;21.20;23.70
10231;DHT22;62604;49.432;8.680;2022-08-11T02:02:28;21.10;23.70
10231;DHT22;62604;49.432;8.680;2022-08-11T02:05:25;21.10;23.90
10231;DHT22;62604;49.432;8.680;2022-08-11T02:07:58;21.00;24.10
10231;DHT22;62604;49.432;8.680;2022-08-11T02:10:34;21.00;24.10
10231;DHT22;62604;49.432;8.680;2022-08-11T02:13:32;21.00;24.20
10231;DHT22;62604;49.432;8.680;2022-08-11T02:16:07;21.00;23.90
10231;DHT22;62604;49.432;8.680;2022-08-11T02:18:37;21.00;23.90
10231;DHT22;62604;49.432;8.680;2022-08-11T02:21:28;21.00;23.90
10231;DHT22;62604;49.432;8.680;2022-08-11T02:24:16;21.00;24.10
10231;DHT22;62604;49.432;8.680;2022-08-11T02:26:52;20.90;24.20
10231;DHT22;62604;49.432;8.680;2022-08-11T02:29:24;20.90;24.30
10231;DHT22;62604;49.432;8.680;2022-08-11T02:32:06;20.80;24.40
10231;DHT22;62604;49.432;8.680;2022-08-11T02:35:11;20.80;24.80
10231;DHT22;62604;49.432;8.680;2022-08-11T02:37:49;20.70;24.80
10231;DHT22;62604;49.432;8.680;2022-08-11T02:40:29;20.60;24.90
10231;DHT22;62604;49.432;8.680;2022-08-11T02:43:19;20.60;25.00
10231;DHT22;62604;49.432;8.680;2022-08-11T02:45:53;20.50;25.20
10231;DHT22;62604;49.432;8.680;2022-08-11T02:48:33;20.50;25.20
10231;DHT22;62604;49.432;8.680;2022-08-11T02:51:28;20.50;25.30
10231;DHT22;62604;49.432;8.680;2022-08-11T02:54:09;20.50;25.30
10231;DHT22;62604;49.432;8.680;2022-08-11T02:56:45;20.50;25.40
10231;DHT22;62604;49.432;8.680;2022-08-11T02:59:24;20.40;25.30
10231;DHT22;62604;49.432;8.680;2022-08-11T03:02:15;20.40;25.50
10231;DHT22;62604;49.432;8.680;2022-08-11T03:05:03;20.40;25.60
10231;DHT22;62604;49.432;8.680;2022-08-11T03:07:37;20.40;25.60
10231;DHT22;62604;49.432;8.680;2022-08-11T03:10:16;20.40;25.60
10231;DHT22;62604;49.432;8.680;2022-08-11T03:12:48;20.30;25.50
10231;DHT22;62604;49.432;8.680;2022-08-11T03:15:45;20.30;25.50
10231;DHT22;62604;49.432;8.680;2022-08-11T03:18:32;20.30;25.60
10231;DHT22;62604;49.432;8.680;2022-08-11T03:21:06;20.30;25.60
10231;DHT22;62604;49.432;8.680;2022-08-11T03:23:40;20.30;25.90
10231;DHT22;62604;49.432;8.680;2022-08-11T03:26:21;20.30;25.90
10231;DHT22;62604;49.432;8.680;2022-08-11T03:28:55;20.30;26.00
10231;DHT22;62604;49.432;8.680;2022-08-11T03:31:31;20.30;26.00
10231;DHT22;62604;49.432;8.680;2022-08-11T03:34:02;20.30;25.80
10231;DHT22;62604;49.432;8.680;2022-08-11T03:40:11;20.30;26.00
10231;DHT22;62604;49.432;8.680;2022-08-11T03:42:45;20.20;26.00
10231;DHT22;62604;49.432;8.680;2022-08-11T03:45:25;20.20;26.00
10231;DHT22;62604;49.432;8.680;2022-08-11T03:48:08;20.20;26.20
10231;DHT22;62604;49.432;8.680;2022-08-11T03:50:52;20.20;26.20
10231;DHT22;62604;49.432;8.680;2022-08-11T03:59:50;20.20;26.20
10231;DHT22;62604;49.432;8.680;2022-08-11T04:02:46;20.20;26.30
10231;DHT22;62604;49.432;8.680;2022-08-11T04:05:43;20.20;26.40
10231;DHT22;62604;49.432;8.680;2022-08-11T04:11:50;20.10;26.40
10231;DHT22;62604;49.432;8.680;2022-08-11T04:14:42;20.10;26.50
10231;DHT22;62604;49.432;8.680;2022-08-11T04:17:48;20.10;26.70
10231;DHT22;62604;49.432;8.680;2022-08-11T04:20:31;20.00;26.60
10231;DHT22;62604;49.432;8.680;2022-08-11T04:23:23;20.00;26.60
10231;DHT22;62604;49.432;8.680;2022-08-11T04:26:29;20.00;26.70
10231;DHT22;62604;49.432;8.680;2022-08-11T04:29:13;20.00;26.80
10231;DHT22;62604;49.432;8.680;2022-08-11T04:32:00;20.00;26.90
10231;DHT22;62604;49.432;8.680;2022-08-11T04:34:43;20.00;26.90
10231;DHT22;62604;49.432;8.680;2022-08-11T04:37:48;19.90;26.90
10231;DHT22;62604;49.432;8.680;2022-08-11T04:40:41;20.00;27.10
10231;DHT22;62604;49.432;8.680;2022-08-11T04:43:38;19.90;27.20
10231;DHT22;62604;49.432;8.680;2022-08-11T04:46:48;20.00;27.10
10231;DHT22;62604;49.432;8.680;2022-08-11T04:49:54;20.00;27.30
10231;DHT22;62604;49.432;8.680;2022-08-11T04:56:04;20.00;27.10
10231;DHT22;62604;49.432;8.680;2022-08-11T04:59:02;20.00;27.10
10231;DHT22;62604;49.432;8.680;2022-08-11T05:02:16;20.00;27.30
10231;DHT22;62604;49.432;8.680;2022-08-11T05:05:00;20.10;27.40
10231;DHT22;62604;49.432;8.680;2022-08-11T05:08:15;20.10;27.20
10231;DHT22;62604;49.432;8.680;2022-08-11T05:10:59;20.10;27.20
10231;DHT22;62604;49.432;8.680;2022-08-11T05:13:31;20.20;27.10
10231;DHT22;62604;49.432;8.680;2022-08-11T05:16:20;20.20;27.30
10231;DHT22;62604;49.432;8.680;2022-08-11T05:19:07;20.30;27.10
10231;DHT22;62604;49.432;8.680;2022-08-11T05:21:58;20.30;27.20
10231;DHT22;62604;49.432;8.680;2022-08-11T05:24:46;20.40;26.90
10231;DHT22;62604;49.432;8.680;2022-08-11T05:27:37;20.50;27.00
10231;DHT22;62604;49.432;8.680;2022-08-11T05:30:25;20.50;26.90
10231;DHT22;62604;49.432;8.680;2022-08-11T05:33:14;20.60;26.80
10231;DHT22;62604;49.432;8.680;2022-08-11T05:36:07;20.70;26.70
10231;DHT22;62604;49.432;8.680;2022-08-11T05:38:38;20.80;26.70
10231;DHT22;62604;49.432;8.680;2022-08-11T05:41:26;20.90;26.40
10231;DHT22;62604;49.432;8.680;2022-08-11T05:44:17;21.10;26.20
10231;DHT22;62604;49.432;8.680;2022-08-11T05:47:03;21.20;26.10
10231;DHT22;62604;49.432;8.680;2022-08-11T05:49:49;21.30;25.70
10231;DHT22;62604;49.432;8.680;2022-08-11T05:52:35;21.40;25.60
10231;DHT22;62604;49.432;8.680;2022-08-11T05:55:20;21.50;25.30
10231;DHT22;62604;49.432;8.680;2022-08-11T05:58:09;21.70;25.30
10231;DHT22;62604;49.432;8.680;2022-08-11T06:00:42;21.80;25.40
10231;DHT22;62604;49.432;8.680;2022-08-11T06:03:11;21.90;25.10
10231;DHT22;62604;49.432;8.680;2022-08-11T06:05:46;22.00;25.00
10231;DHT22;62604;49.432;8.680;2022-08-11T06:08:13;22.10;24.80
10231;DHT22;62604;49.432;8.680;2022-08-11T06:10:42;22.20;24.50
10231;DHT22;62604;49.432;8.680;2022-08-11T06:13:15;22.40;24.50
10231;DHT22;62604;49.432;8.680;2022-08-11T06:15:44;22.50;24.60
10231;DHT22;62604;49.432;8.680;2022-08-11T06:18:12;22.70;23.80
10231;DHT22;62604;49.432;8.680;2022-08-11T06:20:45;22.90;23.70
10231;DHT22;62604;49.432;8.680;2022-08-11T06:23:13;23.10;22.90
10231;DHT22;62604;49.432;8.680;2022-08-11T06:25:43;23.30;22.70
10231;DHT22;62604;49.432;8.680;2022-08-11T06:28:12;23.50;22.80
10231;DHT22;62604;49.432;8.680;2022-08-11T06:30:44;23.70;22.40
10231;DHT22;62604;49.432;8.680;2022-08-11T06:33:13;23.90;22.50
10231;DHT22;62604;49.432;8.680;2022-08-11T06:35:56;24.10;22.90
10231;DHT22;62604;49.432;8.680;2022-08-11T06:38:36;24.30;22.30
10231;DHT22;62604;49.432;8.680;2022-08-11T06:41:13;24.50;22.10
10231;DHT22;62604;49.432;8.680;2022-08-11T06:44:19;24.60;21.40
10231;DHT22;62604;49.432;8.680;2022-08-11T06:46:50;24.80;21.30
10231;DHT22;62604;49.432;8.680;2022-08-11T06:49:25;25.00;21.30
10231;DHT22;62604;49.432;8.680;2022-08-11T06:52:16;25.10;21.00
10231;DHT22;62604;49.432;8.680;2022-08-11T06:54:50;25.30;20.50
10231;DHT22;62604;49.432;8.680;2022-08-11T06:57:28;25.60;20.80
10231;DHT22;62604;49.432;8.680;2022-08-11T07:00:15;25.80;19.90
10231;DHT22;62604;49.432;8.680;2022-08-11T07:02:58;26.20;18.70
10231;DHT22;62604;49.432;8.680;2022-08-11T07:05:37;26.40;18.10
10231;DHT22;62604;49.432;8.680;2022-08-11T07:08:33;26.80;18.60
10231;DHT22;62604;49.432;8.680;2022-08-11T07:14:50;27.30;16.80
10231;DHT22;62604;49.432;8.680;2022-08-11T07:17:40;27.50;17.10
10231;DHT22;62604;49.432;8.680;2022-08-11T07:20:09;27.20;16.60
10231;DHT22;62604;49.432;8.680;2022-08-11T07:23:06;27.30;17.20
10231;DHT22;62604;49.432;8.680;2022-08-11T07:25:53;27.50;17.10
10231;DHT22;62604;49.432;8.680;2022-08-11T07:28:44;28.00;16.90
10231;DHT22;62604;49.432;8.680;2022-08-11T07:31:29;28.20;16.30
10231;DHT22;62604;49.432;8.680;2022-08-11T07:34:14;28.30;16.20
10231;DHT22;62604;49.432;8.680;2022-08-11T07:36:48;28.50;15.90
10231;DHT22;62604;49.432;8.680;2022-08-11T07:39:25;28.80;15.20
10231;DHT22;62604;49.432;8.680;2022-08-11T07:41:53;29.10;15.30
10231;DHT22;62604;49.432;8.680;2022-08-11T07:44:22;29.70;15.30
10231;DHT22;62604;49.432;8.680;2022-08-11T07:46:54;29.60;13.80
10231;DHT22;62604;49.432;8.680;2022-08-11T07:49:43;28.80;14.30
10231;DHT22;62604;49.432;8.680;2022-08-11T07:52:30;28.40;15.00
10231;DHT22;62604;49.432;8.680;2022-08-11T07:55:00;28.60;15.40
10231;DHT22;62604;49.432;8.680;2022-08-11T07:57:30;28.50;15.10
10231;DHT22;62604;49.432;8.680;2022-08-11T08:00:15;28.70;15.40
10231;DHT22;62604;49.432;8.680;2022-08-11T08:03:01;29.20;14.60
10231;DHT22;62604;49.432;8.680;2022-08-11T08:05:48;29.50;15.10
10231;DHT22;62604;49.432;8.680;2022-08-11T08:08:33;29.80;15.10
10231;DHT22;62604;49.432;8.680;2022-08-11T08:11:19;30.20;13.40
10231;DHT22;62604;49.432;8.680;2022-08-11T08:14:05;30.10;14.80
10231;DHT22;62604;49.432;8.680;2022-08-11T08:16:51;30.80;13.80
10231;DHT22;62604;49.432;8.680;2022-08-11T08:19:35;30.90;14.10
10231;DHT22;62604;49.432;8.680;2022-08-11T08:22:04;30.70;13.10
10231;DHT22;62604;49.432;8.680;2022-08-11T08:24:31;31.30;13.20
10231;DHT22;62604;49.432;8.680;2022-08-11T08:26:59;31.60;13.40
10231;DHT22;62604;49.432;8.680;2022-08-11T08:29:31;32.10;12.40
10231;DHT22;62604;49.432;8.680;2022-08-11T08:32:17;32.60;11.60
10231;DHT22;62604;49.432;8.680;2022-08-11T08:34:45;32.50;10.90
10231;DHT22;62604;49.432;8.680;2022-08-11T08:37:13;32.60;11.20
10231;DHT22;62604;49.432;8.680;2022-08-11T08:39:44;32.90;11.20
10231;DHT22;62604;49.432;8.680;2022-08-11T08:42:12;32.90;9.70
10231;DHT22;62604;49.432;8.680;2022-08-11T08:44:46;33.00;9.70
10231;DHT22;62604;49.432;8.680;2022-08-11T08:47:17;33.50;10.20
10231;DHT22;62604;49.432;8.680;2022-08-11T08:49:47;34.30;9.50
10231;DHT22;62604;49.432;8.680;2022-08-11T08:52:19;34.50;8.70
10231;DHT22;62604;49.432;8.680;2022-08-11T08:54:50;34.50;8.20
10231;DHT22;62604;49.432;8.680;2022-08-11T08:57:21;34.20;8.60
10231;DHT22;62604;49.432;8.680;2022-08-11T08:59:49;33.90;8.10
10231;DHT22;62604;49.432;8.680;2022-08-11T09:02:19;32.90;9.00
10231;DHT22;62604;49.432;8.680;2022-08-11T09:04:49;32.10;9.90
10231;DHT22;62604;49.432;8.680;2022-08-11T09:07:21;31.70;10.20
10231;DHT22;62604;49.432;8.680;2022-08-11T09:09:53;32.20;11.20
10231;DHT22;62604;49.432;8.680;2022-08-11T09:12:25;31.90;9.50
10231;DHT22;62604;49.432;8.680;2022-08-11T09:14:53;32.10;9.80
10231;DHT22;62604;49.432;8.680;2022-08-11T09:17:30;32.30;13.80
10231;DHT22;62604;49.432;8.680;2022-08-11T09:20:00;32.30;10.60
10231;DHT22;62604;49.432;8.680;2022-08-11T09:22:31;31.90;12.60
10231;DHT22;62604;49.432;8.680;2022-08-11T09:25:16;31.60;12.00
10231;DHT22;62604;49.432;8.680;2022-08-11T09:28:03;31.90;11.40
10231;DHT22;62604;49.432;8.680;2022-08-11T09:30:32;32.10;9.80
10231;DHT22;62604;49.432;8.680;2022-08-11T09:33:03;31.10;10.20
10231;DHT22;62604;49.432;8.680;2022-08-11T09:35:33;31.10;10.00
10231;DHT22;62604;49.432;8.680;2022-08-11T09:38:05;31.20;11.00
10231;DHT22;62604;49.432;8.680;2022-08-11T09:40:51;31.90;11.50
10231;DHT22;62604;49.432;8.680;2022-08-11T09:43:19;32.70;10.30
10231;DHT22;62604;49.432;8.680;2022-08-11T09:46:08;33.20;9.50
10231;DHT22;62604;49.432;8.680;2022-08-11T09:48:39;32.60;7.30
10231;DHT22;62604;49.432;8.680;2022-08-11T09:51:09;32.00;8.20
10231;DHT22;62604;49.432;8.680;2022-08-11T09:53:39;32.10;7.60
10231;DHT22;62604;49.432;8.680;2022-08-11T09:56:10;32.40;8.40
10231;DHT22;62604;49.432;8.680;2022-08-11T09:58:54;33.00;7.50
10231;DHT22;62604;49.432;8.680;2022-08-11T10:01:27;32.10;7.70
10231;DHT22;62604;49.432;8.680;2022-08-11T10:03:59;32.70;7.20
10231;DHT22;62604;49.432;8.680;2022-08-11T10:06:27;32.30;6.30
10231;DHT22;62604;49.432;8.680;2022-08-11T10:09:17;32.60;6.30
10231;DHT22;62604;49.432;8.680;2022-08-11T10:11:46;32.90;6.40
10231;DHT22;62604;49.432;8.680;2022-08-11T10:14:15;33.40;6.30
10231;DHT22;62604;49.432;8.680;2022-08-11T10:17:05;33.80;6.20
10231;DHT22;62604;49.432;8.680;2022-08-11T10:19:33;34.30;5.00
10231;DHT22;62604;49.432;8.680;2022-08-11T10:22:01;33.60;3.80
10231;DHT22;62604;49.432;8.680;2022-08-11T10:24:49;33.60;4.50
10231;DHT22;62604;49.432;8.680;2022-08-11T10:27:35;34.10;5.10
10231;DHT22;62604;49.432;8.680;2022-08-11T10:30:03;32.90;4.50
10231;DHT22;62604;49.432;8.680;2022-08-11T10:32:49;32.00;5.80
10231;DHT22;62604;49.432;8.680;2022-08-11T10:35:34;32.90;6.10
10231;DHT22;62604;49.432;8.680;2022-08-11T10:38:01;33.00;4.90
10231;DHT22;62604;49.432;8.680;2022-08-11T10:40:30;33.10;5.20
10231;DHT22;62604;49.432;8.680;2022-08-11T10:43:00;33.00;4.40
10231;DHT22;62604;49.432;8.680;2022-08-11T10:45:39;33.50;5.80
10231;DHT22;62604;49.432;8.680;2022-08-11T10:48:26;33.90;5.40
10231;DHT22;62604;49.432;8.680;2022-08-11T10:50:54;33.90;3.90
10231;DHT22;62604;49.432;8.680;2022-08-11T10:53:43;33.40;5.30
10231;DHT22;62604;49.432;8.680;2022-08-11T10:56:31;33.60;4.80
10231;DHT22;62604;49.432;8.680;2022-08-11T10:59:16;32.50;5.40
10231;DHT22;62604;49.432;8.680;2022-08-11T11:01:45;33.00;6.00
10231;DHT22;62604;49.432;8.680;2022-08-11T11:04:13;33.40;4.80
10231;DHT22;62604;49.432;8.680;2022-08-11T11:06:49;33.80;4.20
10231;DHT22;62604;49.432;8.680;2022-08-11T11:09:19;33.70;4.80
10231;DHT22;62604;49.432;8.680;2022-08-11T11:11:52;33.60;3.60
10231;DHT22;62604;49.432;8.680;2022-08-11T11:14:40;32.50;4.80
10231;DHT22;62604;49.432;8.680;2022-08-11T11:17:27;33.50;5.90
10231;DHT22;62604;49.432;8.680;2022-08-11T11:20:19;33.90;3.90
10231;DHT22;62604;49.432;8.680;2022-08-11T11:22:52;34.90;4.00
10231;DHT22;62604;49.432;8.680;2022-08-11T11:25:24;34.90;3.70
10231;DHT22;62604;49.432;8.680;2022-08-11T11:28:33;34.50;4.30
10231;DHT22;62604;49.432;8.680;2022-08-11T11:31:10;35.50;4.30
10231;DHT22;62604;49.432;8.680;2022-08-11T11:33:54;35.00;3.60
10231;DHT22;62604;49.432;8.680;2022-08-11T11:36:30;35.00;2.90
10231;DHT22;62604;49.432;8.680;2022-08-11T11:39:02;33.70;3.70
10231;DHT22;62604;49.432;8.680;2022-08-11T11:41:30;33.80;5.10
10231;DHT22;62604;49.432;8.680;2022-08-11T11:43:59;34.00;5.10
10231;DHT22;62604;49.432;8.680;2022-08-11T11:46:27;34.00;3.80
10231;DHT22;62604;49.432;8.680;2022-08-11T11:48:55;34.50;4.40
10231;DHT22;62604;49.432;8.680;2022-08-11T11:51:24;33.80;3.40
10231;DHT22;62604;49.432;8.680;2022-08-11T11:53:52;33.80;5.10
10231;DHT22;62604;49.432;8.680;2022-08-11T11:56:21;34.20;4.50
10231;DHT22;62604;49.432;8.680;2022-08-11T11:58:52;34.30;3.00
10231;DHT22;62604;49.432;8.680;2022-08-11T12:01:39;34.10;3.40
10231;DHT22;62604;49.432;8.680;2022-08-11T12:04:08;34.00;2.90
10231;DHT22;62604;49.432;8.680;2022-08-11T12:06:37;33.80;3.10
10231;DHT22;62604;49.432;8.680;2022-08-11T12:09:04;33.90;3.50
10231;DHT22;62604;49.432;8.680;2022-08-11T12:11:32;34.20;3.60
10231;DHT22;62604;49.432;8.680;2022-08-11T12:14:18;33.50;3.50
10231;DHT22;62604;49.432;8.680;2022-08-11T12:16:47;32.70;3.20
10231;DHT22;62604;49.432;8.680;2022-08-11T12:19:16;32.70;3.90
10231;DHT22;62604;49.432;8.680;2022-08-11T12:21:47;32.90;3.50
10231;DHT22;62604;49.432;8.680;2022-08-11T12:24:32;32.90;3.40
10231;DHT22;62604;49.432;8.680;2022-08-11T12:27:18;33.60;4.20
10231;DHT22;62604;49.432;8.680;2022-08-11T12:29:50;33.80;3.70
10231;DHT22;62604;49.432;8.680;2022-08-11T12:32:20;33.30;3.10
10231;DHT22;62604;49.432;8.680;2022-08-11T12:34:48;32.80;3.80
10231;DHT22;62604;49.432;8.680;2022-08-11T12:37:19;32.30;3.90
10231;DHT22;62604;49.432;8.680;2022-08-11T12:39:49;31.90;4.20
10231;DHT22;62604;49.432;8.680;2022-08-11T12:42:35;32.00;4.80
10231;DHT22;62604;49.432;8.680;2022-08-11T12:45:24;31.90;4.50
10231;DHT22;62604;49.432;8.680;2022-08-11T12:48:05;32.00;4.00
10231;DHT22;62604;49.432;8.680;2022-08-11T12:50:53;32.10;4.40
10231;DHT22;62604;49.432;8.680;2022-08-11T12:53:42;32.50;4.70
10231;DHT22;62604;49.432;8.680;2022-08-11T12:56:11;32.60;4.40
10231;DHT22;62604;49.432;8.680;2022-08-11T12:58:57;32.70;4.00
10231;DHT22;62604;49.432;8.680;2022-08-11T13:01:42;32.80;4.20
10231;DHT22;62604;49.432;8.680;2022-08-11T13:04:28;33.00;4.40
10231;DHT22;62604;49.432;8.680;2022-08-11T13:07:14;33.10;4.70
10231;DHT22;62604;49.432;8.680;2022-08-11T13:09:43;33.30;4.60
10231;DHT22;62604;49.432;8.680;2022-08-11T13:12:11;33.20;3.50
10231;DHT22;62604;49.432;8.680;2022-08-11T13:14:57;32.80;3.60
10231;DHT22;62604;49.432;8.680;2022-08-11T13:17:26;32.10;4.00
10231;DHT22;62604;49.432;8.680;2022-08-11T13:19:57;31.90;4.30
10231;DHT22;62604;49.432;8.680;2022-08-11T13:22:25;31.70;4.50
10231;DHT22;62604;49.432;8.680;2022-08-11T13:24:52;31.70;4.80
10231;DHT22;62604;49.432;8.680;2022-08-11T13:27:20;31.80;5.50
10231;DHT22;62604;49.432;8.680;2022-08-11T13:29:48;31.70;4.50
10231;DHT22;62604;49.432;8.680;2022-08-11T13:32:19;31.70;5.30
10231;DHT22;62604;49.432;8.680;2022-08-11T13:34:50;31.30;4.70
10231;DHT22;62604;49.432;8.680;2022-08-11T13:37:19;31.30;5.10
10231;DHT22;62604;49.432;8.680;2022-08-11T13:39:47;31.60;5.90
10231;DHT22;62604;49.432;8.680;2022-08-11T13:42:14;31.70;4.80
10231;DHT22;62604;49.432;8.680;2022-08-11T13:44:45;31.90;5.20
10231;DHT22;62604;49.432;8.680;2022-08-11T13:47:14;32.00;4.70
10231;DHT22;62604;49.432;8.680;2022-08-11T13:49:42;31.80;4.40
10231;DHT22;62604;49.432;8.680;2022-08-11T13:52:13;31.90;5.30
10231;DHT22;62604;49.432;8.680;2022-08-11T13:54:43;32.10;5.60
10231;DHT22;62604;49.432;8.680;2022-08-11T13:57:13;32.40;5.50
10231;DHT22;62604;49.432;8.680;2022-08-11T13:59:44;32.30;4.20
10231;DHT22;62604;49.432;8.680;2022-08-11T14:02:14;32.10;4.30
10231;DHT22;62604;49.432;8.680;2022-08-11T14:04:44;32.10;4.20
10231;DHT22;62604;49.432;8.680;2022-08-11T14:07:17;32.10;4.30
10231;DHT22;62604;49.432;8.680;2022-08-11T14:09:57;32.10;3.80
10231;DHT22;62604;49.432;8.680;2022-08-11T14:12:26;32.20;4.10
10231;DHT22;62604;49.432;8.680;2022-08-11T14:15:15;32.50;4.80
10231;DHT22;62604;49.432;8.680;2022-08-11T14:17:46;32.10;4.00
10231;DHT22;62604;49.432;8.680;2022-08-11T14:20:16;32.00;5.10
10231;DHT22;62604;49.432;8.680;2022-08-11T14:22:44;32.20;5.10
10231;DHT22;62604;49.432;8.680;2022-08-11T14:25:14;32.30;4.50
10231;DHT22;62604;49.432;8.680;2022-08-11T14:27:43;32.50;4.50
10231;DHT22;62604;49.432;8.680;2022-08-11T14:30:13;32.60;5.40
10231;DHT22;62604;49.432;8.680;2022-08-11T14:32:55;32.60;4.20
10231;DHT22;62604;49.432;8.680;2022-08-11T14:35:23;32.50;3.70
10231;DHT22;62604;49.432;8.680;2022-08-11T14:37:51;32.30;4.10
10231;DHT22;62604;49.432;8.680;2022-08-11T14:40:20;32.10;4.50
10231;DHT22;62604;49.432;8.680;2022-08-11T14:43:04;31.80;5.20
10231;DHT22;62604;49.432;8.680;2022-08-11T14:45:49;31.80;4.80
10231;DHT22;62604;49.432;8.680;2022-08-11T14:48:35;31.90;4.70
10231;DHT22;62604;49.432;8.680;2022-08-11T14:51:03;32.00;6.00
10231;DHT22;62604;49.432;8.680;2022-08-11T14:53:31;31.90;4.60
10231;DHT22;62604;49.432;8.680;2022-08-11T14:56:00;31.80;4.60
10231;DHT22;62604;49.432;8.680;2022-08-11T14:58:45;31.70;5.20
10231;DHT22;62604;49.432;8.680;2022-08-11T15:01:12;31.60;5.20
10231;DHT22;62604;49.432;8.680;2022-08-11T15:03:54;31.70;4.70
10231;DHT22;62604;49.432;8.680;2022-08-11T15:06:22;31.50;4.40
10231;DHT22;62604;49.432;8.680;2022-08-11T15:08:53;31.30;4.50
10231;DHT22;62604;49.432;8.680;2022-08-11T15:14:51;31.60;5.10
10231;DHT22;62604;49.432;8.680;2022-08-11T15:17:37;31.40;4.30
10231;DHT22;62604;49.432;8.680;2022-08-11T15:20:08;31.50;4.50
10231;DHT22;62604;49.432;8.680;2022-08-11T15:22:54;31.60;4.30
10231;DHT22;62604;49.432;8.680;2022-08-11T15:25:42;31.80;4.50
10231;DHT22;62604;49.432;8.680;2022-08-11T15:28:10;32.00;3.90
10231;DHT22;62604;49.432;8.680;2022-08-11T15:30:57;32.00;3.70
10231;DHT22;62604;49.432;8.680;2022-08-11T15:33:43;31.70;3.60
10231;DHT22;62604;49.432;8.680;2022-08-11T15:36:46;31.50;4.00
10231;DHT22;62604;49.432;8.680;2022-08-11T15:39:35;31.60;4.50
10231;DHT22;62604;49.432;8.680;2022-08-11T15:42:23;31.40;5.00
10231;DHT22;62604;49.432;8.680;2022-08-11T15:45:08;31.50;5.20
10231;DHT22;62604;49.432;8.680;2022-08-11T15:47:58;31.80;5.90
10231;DHT22;62604;49.432;8.680;2022-08-11T15:50:29;31.70;5.30
10231;DHT22;62604;49.432;8.680;2022-08-11T15:52:59;31.70;4.50
10231;DHT22;62604;49.432;8.680;2022-08-11T15:55:28;31.50;4.30
10231;DHT22;62604;49.432;8.680;2022-08-11T15:57:58;31.20;4.30
10231;DHT22;62604;49.432;8.680;2022-08-11T16:00:46;31.10;4.10
10231;DHT22;62604;49.432;8.680;2022-08-11T16:03:38;31.10;5.00
10231;DHT22;62604;49.432;8.680;2022-08-11T16:06:38;30.80;4.70
10231;DHT22;62604;49.432;8.680;2022-08-11T16:09:06;30.90;5.80
10231;DHT22;62604;49.432;8.680;2022-08-11T16:11:34;30.80;5.20
10231;DHT22;62604;49.432;8.680;2022-08-11T16:14:02;31.00;5.70
10231;DHT22;62604;49.432;8.680;2022-08-11T16:16:48;31.00;4.50
10231;DHT22;62604;49.432;8.680;2022-08-11T16:19:19;30.90;4.40
10231;DHT22;62604;49.432;8.680;2022-08-11T16:21:48;30.80;4.20
10231;DHT22;62604;49.432;8.680;2022-08-11T16:24:19;30.70;4.20
10231;DHT22;62604;49.432;8.680;2022-08-11T16:26:48;30.60;4.20
10231;DHT22;62604;49.432;8.680;2022-08-11T16:29:19;30.60;5.10
10231;DHT22;62604;49.432;8.680;2022-08-11T16:31:48;30.70;4.90
10231;DHT22;62604;49.432;8.680;2022-08-11T16:34:32;30.70;5.00
10231;DHT22;62604;49.432;8.680;2022-08-11T16:37:18;30.70;5.30
10231;DHT22;62604;49.432;8.680;2022-08-11T16:40:05;30.70;4.90
10231;DHT22;62604;49.432;8.680;2022-08-11T16:42:34;30.50;5.20
10231;DHT22;62604;49.432;8.680;2022-08-11T16:45:18;30.40;5.40
10231;DHT22;62604;49.432;8.680;2022-08-11T16:48:05;30.30;6.30
10231;DHT22;62604;49.432;8.680;2022-08-11T16:50:35;30.20;6.30
10231;DHT22;62604;49.432;8.680;2022-08-11T16:53:03;30.20;5.70
10231;DHT22;62604;49.432;8.680;2022-08-11T16:55:30;30.20;5.00
10231;DHT22;62604;49.432;8.680;2022-08-11T16:57:59;30.20;5.70
10231;DHT22;62604;49.432;8.680;2022-08-11T17:00:44;30.20;5.60
10231;DHT22;62604;49.432;8.680;2022-08-11T17:03:13;30.10;5.90
10231;DHT22;62604;49.432;8.680;2022-08-11T17:06:00;30.00;5.90
10231;DHT22;62604;49.432;8.680;2022-08-11T17:08:47;29.90;5.70
10231;DHT22;62604;49.432;8.680;2022-08-11T17:11:38;29.90;5.60
10231;DHT22;62604;49.432;8.680;2022-08-11T17:14:26;29.80;6.10
10231;DHT22;62604;49.432;8.680;2022-08-11T17:16:55;29.70;6.20
10231;DHT22;62604;49.432;8.680;2022-08-11T17:19:25;29.70;5.80
10231;DHT22;62604;49.432;8.680;2022-08-11T17:21:55;29.70;5.90
10231;DHT22;62604;49.432;8.680;2022-08-11T17:24:42;29.70;5.80
10231;DHT22;62604;49.432;8.680;2022-08-11T17:27:12;29.70;6.30
10231;DHT22;62604;49.432;8.680;2022-08-11T17:29:45;29.70;6.20
10231;DHT22;62604;49.432;8.680;2022-08-11T17:32:16;29.70;6.30